createdAt,value
2018-04-22T00:01:09.969Z,16.47
2018-04-22T00:03:37.554Z,16.63
2018-04-22T00:06:05.068Z,16.93
2018-04-22T00:08:33.342Z,16.30
2018-04-22T00:11:01.654Z,16.37
2018-04-22T00:13:29.173Z,16.43
2018-04-22T00:15:57.454Z,16.00
2018-04-22T00:18:25.777Z,16.80
2018-04-22T00:20:53.289Z,16.63
2018-04-22T00:23:20.820Z,16.33
2018-04-22T00:25:48.364Z,17.37
2018-04-22T00:28:15.881Z,17.60
2018-04-22T00:30:44.150Z,16.80
2018-04-22T00:33:12.547Z,17.13
2018-04-22T00:35:40.099Z,16.40
2018-04-22T00:38:08.374Z,17.30
2018-04-22T00:40:36.713Z,18.13
2018-04-22T00:43:04.243Z,16.80
2018-04-22T00:45:31.755Z,17.83
2018-04-22T00:47:59.329Z,16.53
2018-04-22T00:50:26.847Z,17.00
2018-04-22T00:52:54.422Z,16.87
2018-04-22T00:55:21.914Z,17.13
2018-04-22T00:57:49.481Z,17.43
2018-04-22T01:00:17.762Z,17.17
2018-04-22T01:02:45.306Z,17.90
2018-04-22T01:05:12.842Z,17.43
2018-04-22T01:07:40.348Z,17.67
2018-04-22T01:10:07.940Z,17.03
2018-04-22T01:12:35.450Z,17.00
2018-04-22T01:15:02.976Z,16.90
2018-04-22T01:17:30.532Z,16.93
2018-04-22T01:19:58.038Z,17.93
2018-04-22T01:22:26.349Z,16.03
2018-04-22T01:24:53.880Z,16.77
2018-04-22T01:27:22.174Z,17.17
2018-04-22T01:29:49.689Z,17.40
2018-04-22T01:32:17.267Z,16.13
2018-04-22T01:34:44.801Z,16.43
2018-04-22T01:37:12.330Z,16.43
2018-04-22T01:39:39.850Z,17.13
2018-04-22T01:42:07.373Z,15.97
2018-04-22T01:44:35.504Z,17.33
2018-04-22T01:47:03.830Z,16.90
2018-04-22T01:49:31.346Z,17.13
2018-04-22T01:51:59.626Z,16.27
2018-04-22T01:54:27.909Z,17.27
2018-04-22T01:56:55.418Z,16.80
2018-04-22T01:59:22.926Z,16.33
2018-04-22T02:01:50.461Z,17.40
2018-04-22T02:04:18.017Z,18.27
2018-04-22T02:06:45.545Z,17.70
2018-04-22T02:09:13.090Z,17.23
2018-04-22T02:11:40.595Z,17.23
2018-04-22T02:14:08.110Z,17.33
2018-04-22T02:16:35.648Z,17.83
2018-04-22T02:19:03.186Z,17.90
2018-04-22T02:21:30.749Z,17.57
2018-04-22T02:23:58.300Z,18.17
2018-04-22T02:26:26.599Z,18.07
2018-04-22T02:28:54.109Z,17.40
2018-04-22T02:31:21.649Z,17.33
2018-04-22T02:33:49.168Z,17.90
2018-04-22T02:36:17.462Z,18.70
2018-04-22T02:38:45.035Z,18.10
2018-04-22T02:41:12.567Z,17.13
2018-04-22T02:43:40.139Z,18.13
2018-04-22T02:46:07.633Z,17.83
2018-04-22T02:48:35.183Z,17.57
2018-04-22T02:51:02.712Z,17.43
2018-04-22T02:53:30.814Z,17.90
2018-04-22T02:55:58.330Z,18.43
2018-04-22T02:58:25.838Z,17.33
2018-04-22T03:00:54.467Z,17.57
2018-04-22T03:03:21.995Z,18.00
2018-04-22T03:05:49.564Z,17.90
2018-04-22T03:08:17.227Z,18.53
2018-04-22T03:10:44.737Z,17.77
2018-04-22T03:13:12.263Z,18.67
2018-04-22T03:15:39.802Z,17.87
2018-04-22T03:18:07.310Z,17.97
2018-04-22T03:20:35.586Z,17.93
2018-04-22T03:23:03.242Z,18.03
2018-04-22T03:25:31.853Z,18.37
2018-04-22T03:27:59.441Z,18.50
2018-04-22T03:30:27.862Z,17.77
2018-04-22T03:32:55.801Z,17.70
2018-04-22T03:35:23.408Z,17.97
2018-04-22T03:37:51.063Z,18.17
2018-04-22T03:40:18.661Z,17.53
2018-04-22T03:42:46.211Z,17.93
2018-04-22T03:45:13.746Z,17.93
2018-04-22T03:47:41.397Z,18.23
2018-04-22T03:50:08.909Z,18.20
2018-04-22T03:52:36.437Z,18.93
2018-04-22T03:55:03.986Z,18.87
2018-04-22T03:57:31.506Z,18.27
2018-04-22T03:59:59.025Z,17.97
2018-04-22T04:02:27.340Z,18.20
2018-04-22T04:04:54.878Z,18.57
2018-04-22T04:07:23.162Z,18.57
2018-04-22T04:09:51.019Z,18.17
2018-04-22T04:12:19.301Z,18.67
2018-04-22T04:14:47.524Z,19.20
2018-04-22T04:17:15.121Z,19.27
2018-04-22T04:19:54.369Z,18.77
2018-04-22T04:22:34.398Z,19.43
2018-04-22T04:28:15.654Z,19.07
2018-04-22T04:30:43.178Z,18.57
2018-04-22T04:33:11.466Z,19.37
2018-04-22T04:35:39.034Z,18.73
2018-04-22T04:38:07.307Z,19.53
2018-04-22T04:40:34.888Z,18.73
2018-04-22T04:43:02.421Z,19.33
2018-04-22T04:45:29.945Z,18.90
2018-04-22T04:47:57.585Z,19.33
2018-04-22T04:50:25.113Z,19.57
2018-04-22T04:52:52.642Z,19.87
2018-04-22T04:55:20.638Z,19.40
2018-04-22T04:57:48.925Z,18.73
2018-04-22T05:00:17.273Z,20.43
2018-04-22T05:02:44.774Z,19.27
2018-04-22T05:05:12.396Z,20.73
2018-04-22T05:07:39.970Z,20.47
2018-04-22T05:10:08.296Z,20.17
2018-04-22T05:12:35.814Z,20.40
2018-04-22T05:15:04.126Z,20.03
2018-04-22T05:17:31.662Z,20.03
2018-04-22T05:19:59.937Z,20.60
2018-04-22T05:22:27.496Z,20.67
2018-04-22T05:24:55.799Z,21.10
2018-04-22T05:27:23.317Z,20.77
2018-04-22T05:29:50.911Z,21.27
2018-04-22T05:32:18.432Z,21.23
2018-04-22T05:34:45.950Z,21.20
2018-04-22T05:37:13.497Z,20.70
2018-04-22T05:39:41.017Z,20.87
2018-04-22T05:42:08.618Z,21.93
2018-04-22T05:44:36.168Z,21.87
2018-04-22T05:47:04.448Z,22.20
2018-04-22T05:49:32.690Z,21.30
2018-04-22T05:52:00.237Z,24.33
2018-04-22T05:54:28.514Z,21.73
2018-04-22T05:56:56.049Z,22.83
2018-04-22T05:59:23.591Z,24.73
2018-04-22T06:01:51.111Z,24.37
2018-04-22T06:04:18.624Z,23.93
2018-04-22T06:06:46.210Z,24.53
2018-04-22T06:09:13.727Z,24.97
2018-04-22T06:11:41.312Z,24.77
2018-04-22T06:14:09.640Z,24.23
2018-04-22T06:16:37.203Z,25.27
2018-04-22T06:19:04.754Z,24.87
2018-04-22T06:21:34.143Z,26.43
2018-04-22T06:24:01.660Z,27.33
2018-04-22T06:26:29.938Z,27.07
2018-04-22T06:28:57.503Z,26.07
2018-04-22T06:31:25.037Z,28.00
2018-04-22T06:33:52.626Z,27.17
2018-04-22T06:36:20.179Z,30.60
2018-04-22T06:38:48.473Z,29.23
2018-04-22T06:41:16.015Z,32.17
2018-04-22T06:43:44.292Z,32.70
2018-04-22T06:46:11.810Z,32.67
2018-04-22T06:48:39.357Z,33.00
2018-04-22T06:51:06.882Z,32.80
2018-04-22T06:53:34.417Z,32.20
2018-04-22T06:56:01.965Z,34.10
2018-04-22T06:58:29.500Z,33.33
2018-04-22T07:00:57.020Z,34.30
2018-04-22T07:03:24.574Z,34.07
2018-04-22T07:05:52.109Z,36.47
2018-04-22T07:08:19.666Z,35.47
2018-04-22T07:10:47.227Z,35.07
2018-04-22T07:13:14.767Z,35.20
2018-04-22T07:15:43.396Z,36.53
2018-04-22T07:18:10.955Z,37.23
2018-04-22T07:20:39.242Z,36.20
2018-04-22T07:23:06.807Z,36.60
2018-04-22T07:25:35.165Z,36.77
2018-04-22T07:28:02.709Z,36.67
2018-04-22T07:30:30.219Z,36.57
2018-04-22T07:32:57.803Z,33.80
2018-04-22T07:35:25.328Z,35.73
2018-04-22T07:37:53.618Z,36.80
2018-04-22T07:40:21.149Z,38.20
2018-04-22T07:42:48.727Z,34.90
2018-04-22T07:45:16.245Z,34.77
2018-04-22T07:47:43.790Z,36.23
2018-04-22T07:50:11.338Z,38.17
2018-04-22T07:52:38.865Z,38.97
2018-04-22T07:55:06.437Z,37.83
2018-04-22T07:57:33.969Z,38.43
2018-04-22T08:00:01.496Z,37.13
2018-04-22T08:02:29.121Z,40.23
2018-04-22T08:04:56.669Z,40.03
2018-04-22T08:07:24.199Z,37.90
2018-04-22T08:09:51.763Z,39.23
2018-04-22T08:12:19.265Z,39.83
2018-04-22T08:14:46.790Z,38.87
2018-04-22T08:17:14.372Z,40.87
2018-04-22T08:19:42.704Z,39.40
2018-04-22T08:22:10.262Z,34.07
2018-04-22T08:24:37.825Z,38.30
2018-04-22T08:27:05.362Z,41.03
2018-04-22T08:29:33.511Z,39.33
2018-04-22T08:32:01.860Z,41.83
2018-04-22T08:34:29.523Z,39.23
2018-04-22T08:36:57.091Z,38.40
2018-04-22T08:39:24.627Z,39.83
2018-04-22T08:41:56.655Z,38.80
2018-04-22T08:44:25.198Z,38.03
2018-04-22T08:46:53.786Z,38.20
2018-04-22T08:49:22.348Z,38.30
2018-04-22T08:51:49.869Z,38.87
2018-04-22T08:54:18.103Z,39.00
2018-04-22T08:56:45.809Z,38.33
2018-04-22T08:59:13.354Z,37.27
2018-04-22T09:01:41.650Z,36.07
2018-04-22T09:04:09.196Z,36.33
2018-04-22T09:06:37.466Z,31.43
2018-04-22T09:09:05.723Z,37.87
2018-04-22T09:11:33.252Z,29.40
2018-04-22T09:14:00.817Z,37.73
2018-04-22T09:16:28.395Z,28.90
2018-04-22T09:18:55.986Z,35.43
2018-04-22T09:21:23.498Z,33.43
2018-04-22T09:23:51.029Z,39.07
2018-04-22T09:26:18.572Z,36.80
2018-04-22T09:28:46.091Z,39.23
2018-04-22T09:31:13.663Z,36.83
2018-04-22T09:33:41.187Z,34.80
2018-04-22T09:36:08.707Z,37.13
2018-04-22T09:38:36.243Z,37.67
2018-04-22T09:41:03.851Z,32.17
2018-04-22T09:43:31.390Z,35.93
2018-04-22T09:45:59.068Z,31.57
2018-04-22T09:48:26.599Z,35.17
2018-04-22T09:50:54.125Z,33.53
2018-04-22T09:53:21.840Z,33.97
2018-04-22T09:55:49.722Z,30.33
2018-04-22T09:58:17.286Z,37.00
2018-04-22T10:00:46.875Z,33.17
2018-04-22T10:03:15.195Z,31.93
2018-04-22T10:05:48.405Z,28.40
2018-04-22T10:08:15.953Z,25.93
2018-04-22T10:10:43.460Z,23.80
2018-04-22T10:13:10.986Z,23.43
2018-04-22T10:15:39.289Z,21.63
2018-04-22T10:18:06.799Z,25.83
2018-04-22T10:20:34.357Z,25.23
2018-04-22T10:23:01.907Z,24.33
2018-04-22T10:25:29.444Z,20.10
2018-04-22T10:27:57.080Z,15.97
2018-04-22T10:30:24.728Z,14.43
2018-04-22T10:32:52.242Z,13.50
2018-04-22T10:35:20.518Z,15.03
2018-04-22T10:37:48.091Z,12.40
2018-04-22T10:40:15.619Z,11.57
2018-04-22T10:42:43.763Z,10.97
2018-04-22T10:45:11.350Z,12.23
2018-04-22T10:47:38.872Z,13.17
2018-04-22T10:50:07.140Z,11.60
2018-04-22T10:52:34.690Z,12.93
2018-04-22T10:55:02.276Z,13.23
2018-04-22T10:57:29.811Z,12.07
2018-04-22T10:59:58.097Z,11.60
2018-04-22T11:02:25.659Z,8.93
2018-04-22T11:04:53.169Z,8.30
2018-04-22T11:07:20.747Z,8.73
2018-04-22T11:09:49.086Z,7.03
2018-04-22T11:12:16.649Z,8.10
2018-04-22T11:14:44.161Z,8.10
2018-04-22T11:17:12.486Z,8.20
2018-04-22T11:19:39.990Z,7.83
2018-04-22T11:22:08.310Z,7.73
2018-04-22T11:24:35.872Z,8.40
2018-04-22T11:27:04.138Z,6.60
2018-04-22T11:29:31.672Z,6.17
2018-04-22T11:32:00.017Z,6.70
2018-04-22T11:34:27.562Z,6.10
2018-04-22T11:36:55.872Z,5.87
2018-04-22T11:39:23.431Z,5.80
2018-04-22T11:41:50.974Z,5.30
2018-04-22T11:44:18.494Z,5.03
2018-04-22T11:46:46.013Z,4.40
2018-04-22T11:49:13.592Z,4.57
2018-04-22T11:51:41.146Z,5.20
2018-04-22T11:54:09.274Z,5.57
2018-04-22T11:56:36.834Z,8.00
2018-04-22T11:59:04.398Z,7.83
2018-04-22T12:01:31.963Z,7.37
2018-04-22T12:03:59.516Z,7.83
2018-04-22T12:06:27.045Z,7.20
2018-04-22T12:08:54.577Z,6.97
2018-04-22T12:11:22.101Z,6.63
2018-04-22T12:13:49.614Z,6.13
2018-04-22T12:16:17.974Z,7.73
2018-04-22T12:18:45.482Z,6.80
2018-04-22T12:21:13.010Z,6.83
2018-04-22T12:23:40.604Z,6.97
2018-04-22T12:26:08.132Z,6.53
2018-04-22T12:28:35.645Z,6.77
2018-04-22T12:31:03.179Z,7.00
2018-04-22T12:33:30.758Z,6.37
2018-04-22T12:35:58.274Z,6.00
2018-04-22T12:38:25.822Z,7.97
2018-04-22T12:40:53.355Z,7.50
2018-04-22T12:43:20.910Z,7.43
2018-04-22T12:45:48.509Z,5.70
2018-04-22T12:48:16.042Z,5.80
2018-04-22T12:50:43.617Z,5.83
2018-04-22T12:53:11.169Z,5.87
2018-04-22T12:55:38.697Z,7.23
2018-04-22T12:58:06.198Z,7.07
2018-04-22T13:00:33.722Z,6.60
2018-04-22T13:03:01.238Z,6.17
2018-04-22T13:05:28.749Z,5.80
2018-04-22T13:07:56.266Z,5.17
2018-04-22T13:10:24.554Z,5.20
2018-04-22T13:12:52.132Z,4.80
2018-04-22T13:15:19.691Z,4.77
2018-04-22T13:17:47.202Z,4.60
2018-04-22T13:20:14.783Z,4.23
2018-04-22T13:22:42.301Z,4.20
2018-04-22T13:25:09.827Z,3.87
2018-04-22T13:27:37.354Z,4.10
2018-04-22T13:30:04.896Z,3.47
2018-04-22T13:32:32.401Z,3.60
2018-04-22T13:35:00.716Z,3.77
2018-04-22T13:37:29.101Z,3.80
2018-04-22T13:39:56.622Z,3.40
2018-04-22T13:44:58.150Z,3.97
2018-04-22T13:47:25.694Z,3.83
2018-04-22T13:49:53.216Z,3.67
2018-04-22T13:52:20.769Z,4.00
2018-04-22T13:54:48.365Z,3.97
2018-04-22T13:57:15.863Z,3.93
2018-04-22T13:59:43.450Z,3.67
2018-04-22T14:02:11.827Z,4.07
2018-04-22T14:04:39.382Z,3.93
2018-04-22T14:07:07.708Z,3.80
2018-04-22T14:09:35.235Z,3.90
2018-04-22T14:12:03.547Z,3.80
2018-04-22T14:14:31.115Z,4.00
2018-04-22T14:16:58.664Z,3.90
2018-04-22T14:19:26.177Z,3.60
2018-04-22T14:21:53.744Z,3.83
2018-04-22T14:24:22.031Z,3.70
2018-04-22T14:26:49.760Z,4.00
2018-04-22T14:29:17.311Z,3.70
2018-04-22T14:31:45.289Z,3.83
2018-04-22T14:34:12.799Z,3.67
2018-04-22T14:36:40.365Z,4.20
2018-04-22T14:39:07.883Z,3.97
2018-04-22T14:41:35.402Z,3.93
2018-04-22T14:44:14.817Z,4.30
2018-04-22T14:46:43.095Z,4.03
2018-04-22T14:49:10.639Z,3.90
2018-04-22T14:51:38.997Z,4.10
2018-04-22T14:54:06.508Z,3.97
2018-04-22T14:56:34.016Z,4.00
2018-04-22T14:59:01.563Z,3.73
2018-04-22T15:01:29.093Z,3.97
2018-04-22T15:03:56.602Z,4.17
2018-04-22T15:06:24.315Z,4.43
2018-04-22T15:08:52.099Z,4.63
2018-04-22T15:11:19.618Z,4.37
2018-04-22T15:13:47.154Z,4.40
2018-04-22T15:16:14.667Z,4.70
2018-04-22T15:18:42.193Z,4.50
2018-04-22T15:21:10.535Z,4.60
2018-04-22T15:23:38.042Z,4.47
2018-04-22T15:26:06.323Z,4.43
2018-04-22T15:28:33.859Z,4.83
2018-04-22T15:31:01.391Z,5.13
2018-04-22T15:33:29.677Z,5.03
2018-04-22T15:35:57.814Z,4.70
2018-04-22T15:38:25.332Z,4.70
2018-04-22T15:40:52.857Z,5.53
2018-04-22T15:43:20.395Z,4.60
2018-04-22T15:45:47.901Z,5.40
2018-04-22T15:48:15.406Z,4.80
2018-04-22T15:50:42.940Z,4.57
2018-04-22T15:53:10.550Z,4.70
2018-04-22T15:55:38.138Z,4.90
2018-04-22T15:58:05.681Z,4.90
2018-04-22T16:00:33.220Z,4.57
2018-04-22T16:03:00.747Z,4.33
2018-04-22T16:05:29.046Z,4.50
2018-04-22T16:07:57.313Z,5.00
2018-04-22T16:10:24.900Z,5.07
2018-04-22T16:12:52.491Z,4.70
2018-04-22T16:15:20.827Z,4.67
2018-04-22T16:17:48.348Z,4.90
2018-04-22T16:20:15.866Z,4.97
2018-04-22T16:22:43.462Z,5.17
2018-04-22T16:25:10.962Z,4.33
2018-04-22T16:27:39.263Z,4.37
2018-04-22T16:30:06.823Z,5.10
2018-04-22T16:32:34.325Z,5.50
2018-04-22T16:35:01.846Z,7.23
2018-04-22T16:37:29.710Z,10.27
2018-04-22T16:39:57.231Z,10.90
2018-04-22T16:42:24.752Z,10.07
2018-04-22T16:44:52.296Z,6.93
2018-04-22T16:47:19.819Z,7.83
2018-04-22T16:49:48.108Z,7.10
2018-04-22T16:52:15.671Z,7.60
2018-04-22T16:54:44.762Z,6.60
2018-04-22T16:57:13.037Z,8.70
2018-04-22T16:59:40.574Z,8.37
2018-04-22T17:02:08.240Z,8.60
2018-04-22T17:04:35.762Z,8.00
2018-04-22T17:07:03.335Z,9.07
2018-04-22T17:09:30.853Z,9.13
2018-04-22T17:11:58.578Z,7.30
2018-04-22T17:14:26.233Z,9.00
2018-04-22T17:16:53.780Z,7.73
2018-04-22T17:19:22.009Z,7.90
2018-04-22T17:21:49.526Z,7.33
2018-04-22T17:24:17.186Z,8.00
2018-04-22T17:26:44.707Z,7.73
2018-04-22T17:29:12.252Z,7.50
2018-04-22T17:31:40.545Z,7.53
2018-04-22T17:34:08.103Z,8.40
2018-04-22T17:36:36.435Z,7.43
2018-04-22T17:39:03.974Z,7.40
2018-04-22T17:41:31.503Z,8.67
2018-04-22T17:43:59.032Z,7.93
2018-04-22T17:46:26.568Z,7.70
2018-04-22T17:48:54.091Z,8.27
2018-04-22T17:51:21.623Z,8.60
2018-04-22T17:53:49.909Z,8.27
2018-04-22T17:56:18.242Z,9.17
2018-04-22T17:58:45.755Z,9.23
2018-04-22T18:01:14.100Z,9.40
2018-04-22T18:03:41.661Z,9.70
2018-04-22T18:06:09.246Z,9.67
2018-04-22T18:08:36.788Z,10.23
2018-04-22T18:11:04.349Z,10.10
2018-04-22T18:13:31.910Z,11.17
2018-04-22T18:15:59.427Z,11.40
2018-04-22T18:18:26.958Z,12.63
2018-04-22T18:20:54.516Z,12.07
2018-04-22T18:23:22.072Z,13.03
2018-04-22T18:25:49.637Z,12.77
2018-04-22T18:28:17.974Z,13.10
2018-04-22T18:30:45.518Z,12.77
2018-04-22T18:33:13.082Z,13.17
2018-04-22T18:35:40.693Z,12.93
2018-04-22T18:38:08.214Z,13.40
2018-04-22T18:40:35.834Z,14.07
2018-04-22T18:43:03.358Z,13.53
2018-04-22T18:45:30.895Z,14.10
2018-04-22T18:47:58.443Z,13.07
2018-04-22T18:50:25.975Z,13.43
2018-04-22T18:52:53.536Z,13.43
2018-04-22T18:55:21.847Z,13.03
2018-04-22T18:57:49.415Z,12.77
2018-04-22T19:00:17.744Z,13.13
2018-04-22T19:02:46.056Z,12.23
2018-04-22T19:05:13.625Z,11.13
2018-04-22T19:07:41.170Z,12.03
2018-04-22T19:10:08.704Z,11.53
2018-04-22T19:12:36.990Z,10.50
2018-04-22T19:15:04.728Z,11.70
2018-04-22T19:17:32.246Z,11.50
2018-04-22T19:19:59.805Z,10.90
2018-04-22T19:22:27.388Z,12.00
2018-04-22T19:24:54.930Z,11.60
2018-04-22T19:27:22.461Z,11.77
2018-04-22T19:29:50.062Z,12.10
2018-04-22T19:32:17.594Z,11.70
2018-04-22T19:34:45.936Z,11.17
2018-04-22T19:37:13.424Z,10.67
2018-04-22T19:39:40.977Z,11.47
2018-04-22T19:42:09.284Z,12.17
2018-04-22T19:44:36.795Z,12.10
2018-04-22T19:47:04.325Z,12.50
2018-04-22T19:49:31.864Z,11.37
2018-04-22T19:51:59.391Z,11.90
2018-04-22T19:54:26.907Z,11.80
2018-04-22T19:56:54.437Z,12.60
2018-04-22T19:59:21.952Z,13.57
2018-04-22T20:01:49.505Z,14.03
2018-04-22T20:04:17.819Z,14.00
2018-04-22T20:06:46.151Z,13.47
2018-04-22T20:09:14.641Z,12.43
2018-04-22T20:11:42.195Z,13.90
2018-04-22T20:14:09.794Z,14.97
2018-04-22T20:16:38.251Z,14.83
2018-04-22T20:19:05.834Z,14.50
2018-04-22T20:21:34.190Z,14.60
2018-04-22T20:24:01.742Z,14.20
2018-04-22T20:26:29.254Z,14.77
2018-04-22T20:28:56.779Z,15.90
2018-04-22T20:31:24.349Z,15.87
2018-04-22T20:33:52.617Z,15.47
2018-04-22T20:36:20.140Z,14.97
2018-04-22T20:38:47.726Z,16.47
2018-04-22T20:41:15.241Z,14.83
2018-04-22T20:43:43.538Z,15.60
2018-04-22T20:46:11.733Z,18.13
2018-04-22T20:48:39.247Z,17.67
2018-04-22T20:51:06.769Z,17.57
2018-04-22T20:53:34.358Z,17.77
2018-04-22T20:56:02.642Z,17.27
2018-04-22T20:58:30.158Z,17.60
2018-04-22T21:00:57.684Z,18.03
2018-04-22T21:03:25.365Z,16.97
2018-04-22T21:05:52.842Z,17.17
2018-04-22T21:08:20.400Z,16.13
2018-04-22T21:10:47.905Z,17.77
2018-04-22T21:13:15.458Z,16.20
2018-04-22T21:15:43.038Z,18.27
2018-04-22T21:18:11.325Z,17.63
2018-04-22T21:20:38.843Z,17.73
2018-04-22T21:23:06.374Z,17.90
2018-04-22T21:25:33.901Z,19.20
2018-04-22T21:28:02.216Z,21.37
2018-04-22T21:30:29.763Z,20.80
2018-04-22T21:32:57.336Z,19.83
2018-04-22T21:35:24.848Z,20.67
2018-04-22T21:37:52.385Z,20.90
2018-04-22T21:40:19.899Z,19.37
2018-04-22T21:42:47.486Z,19.57
2018-04-22T21:45:15.054Z,19.90
2018-04-22T21:47:42.558Z,21.10
2018-04-22T21:50:10.066Z,20.90
2018-04-22T21:52:37.612Z,19.43
2018-04-22T21:55:05.142Z,19.43
2018-04-22T21:57:32.670Z,18.30
2018-04-22T22:00:00.219Z,19.33
2018-04-22T22:02:27.773Z,19.63
2018-04-22T22:04:55.303Z,20.83
2018-04-22T22:07:22.813Z,20.63
2018-04-22T22:09:50.354Z,20.70
2018-04-22T22:12:17.889Z,20.13
2018-04-22T22:14:45.414Z,20.07
2018-04-22T22:17:13.722Z,20.60
2018-04-22T22:19:41.231Z,20.73
2018-04-22T22:22:08.806Z,21.43
2018-04-22T22:24:36.333Z,22.07
2018-04-22T22:27:03.837Z,24.70
2018-04-22T22:29:31.347Z,22.53
2018-04-22T22:31:58.911Z,23.00
2018-04-22T22:34:26.444Z,29.17
2018-04-22T22:36:53.999Z,26.83
2018-04-22T22:39:21.539Z,26.87
2018-04-22T22:41:49.822Z,20.97
2018-04-22T22:44:17.342Z,24.07
2018-04-22T22:46:44.874Z,17.87
2018-04-22T22:49:13.175Z,17.10
2018-04-22T22:51:40.682Z,12.33
2018-04-22T22:54:08.271Z,10.90
2018-04-22T22:56:35.828Z,10.00
2018-04-22T22:59:03.362Z,9.67
2018-04-22T23:01:31.678Z,11.30
2018-04-22T23:03:59.278Z,11.07
2018-04-22T23:06:26.783Z,10.20
2018-04-22T23:08:54.326Z,11.03
2018-04-22T23:11:21.852Z,11.10
2018-04-22T23:13:49.370Z,11.60
2018-04-22T23:16:16.920Z,10.30
2018-04-22T23:18:45.724Z,10.18
2018-04-22T23:21:13.238Z,9.83
2018-04-22T23:23:40.770Z,9.20
2018-04-22T23:26:08.271Z,8.67
2018-04-22T23:28:35.775Z,7.93
2018-04-22T23:31:03.313Z,8.30
2018-04-22T23:33:30.813Z,7.73
2018-04-22T23:35:58.353Z,7.90
2018-04-22T23:38:25.861Z,7.20
2018-04-22T23:40:53.375Z,7.80
2018-04-22T23:43:20.902Z,7.60
2018-04-22T23:45:49.175Z,7.17
2018-04-22T23:48:16.722Z,8.00
2018-04-22T23:50:44.270Z,7.47
2018-04-22T23:53:11.810Z,7.17
2018-04-22T23:55:39.322Z,7.77
2018-04-22T23:58:06.855Z,7.27
